sensor_id;sensor_type;location;lat;lon;timestamp;P1;durP1;ratioP1;P2;durP2;ratioP2
33644;SDS011;19986;48.190;16.366;2023-04-29T00:00:54;52.17;;;48.53;;
33644;SDS011;19986;48.190;16.366;2023-04-29T00:03:20;54.97;;;51.28;;
33644;SDS011;19986;48.190;16.366;2023-04-29T00:05:46;50.47;;;47.15;;
33644;SDS011;19986;48.190;16.366;2023-04-29T00:08:11;53.47;;;49.88;;
33644;SDS011;19986;48.190;16.366;2023-04-29T00:10:37;53.50;;;49.70;;
33644;SDS011;19986;48.190;16.366;2023-04-29T00:13:03;54.13;;;50.40;;
33644;SDS011;19986;48.190;16.366;2023-04-29T00:15:29;54.17;;;50.60;;
33644;SDS011;19986;48.190;16.366;2023-04-29T00:17:55;55.15;;;51.53;;
33644;SDS011;19986;48.190;16.366;2023-04-29T00:20:21;54.40;;;50.90;;
33644;SDS011;19986;48.190;16.366;2023-04-29T00:22:47;55.22;;;51.53;;
33644;SDS011;19986;48.190;16.366;2023-04-29T00:25:13;56.65;;;52.78;;
33644;SDS011;19986;48.190;16.366;2023-04-29T00:27:40;55.72;;;52.08;;
33644;SDS011;19986;48.190;16.366;2023-04-29T00:30:06;54.97;;;51.28;;
33644;SDS011;19986;48.190;16.366;2023-04-29T00:32:32;56.92;;;53.25;;
33644;SDS011;19986;48.190;16.366;2023-04-29T00:34:58;55.85;;;52.15;;
33644;SDS011;19986;48.190;16.366;2023-04-29T00:37:25;55.72;;;51.83;;
33644;SDS011;19986;48.190;16.366;2023-04-29T00:39:51;57.83;;;53.90;;
33644;SDS011;19986;48.190;16.366;2023-04-29T00:42:17;57.22;;;53.42;;
33644;SDS011;19986;48.190;16.366;2023-04-29T00:44:45;57.15;;;53.38;;
33644;SDS011;19986;48.190;16.366;2023-04-29T00:47:10;56.05;;;52.40;;
33644;SDS011;19986;48.190;16.366;2023-04-29T00:49:37;57.15;;;53.08;;
33644;SDS011;19986;48.190;16.366;2023-04-29T00:52:04;58.97;;;54.97;;
33644;SDS011;19986;48.190;16.366;2023-04-29T00:54:33;59.00;;;54.90;;
33644;SDS011;19986;48.190;16.366;2023-04-29T00:57:00;61.97;;;57.58;;
33644;SDS011;19986;48.190;16.366;2023-04-29T00:59:28;58.30;;;54.13;;
33644;SDS011;19986;48.190;16.366;2023-04-29T01:01:58;59.53;;;55.35;;
33644;SDS011;19986;48.190;16.366;2023-04-29T01:04:25;60.85;;;56.38;;
33644;SDS011;19986;48.190;16.366;2023-04-29T01:12:53;61.17;;;56.55;;
33644;SDS011;19986;48.190;16.366;2023-04-29T01:15:35;66.60;;;61.65;;
33644;SDS011;19986;48.190;16.366;2023-04-29T01:18:25;64.70;;;59.58;;
33644;SDS011;19986;48.190;16.366;2023-04-29T01:20:56;72.85;;;67.05;;
33644;SDS011;19986;48.190;16.366;2023-04-29T01:23:26;70.80;;;65.20;;
33644;SDS011;19986;48.190;16.366;2023-04-29T01:25:55;74.65;;;68.63;;
33644;SDS011;19986;48.190;16.366;2023-04-29T01:31:06;75.15;;;68.78;;
33644;SDS011;19986;48.190;16.366;2023-04-29T01:41:56;75.57;;;69.38;;
33644;SDS011;19986;48.190;16.366;2023-04-29T01:44:26;73.70;;;67.80;;
33644;SDS011;19986;48.190;16.366;2023-04-29T01:46:54;74.63;;;68.68;;
33644;SDS011;19986;48.190;16.366;2023-04-29T01:49:25;73.30;;;67.53;;
33644;SDS011;19986;48.190;16.366;2023-04-29T01:51:52;72.53;;;66.78;;
33644;SDS011;19986;48.190;16.366;2023-04-29T01:54:19;73.63;;;67.93;;
33644;SDS011;19986;48.190;16.366;2023-04-29T01:56:47;71.20;;;65.57;;
33644;SDS011;19986;48.190;16.366;2023-04-29T01:59:13;73.60;;;68.00;;
33644;SDS011;19986;48.190;16.366;2023-04-29T02:01:39;72.30;;;66.32;;
33644;SDS011;19986;48.190;16.366;2023-04-29T02:04:06;74.95;;;69.13;;
33644;SDS011;19986;48.190;16.366;2023-04-29T02:06:32;73.07;;;67.30;;
33644;SDS011;19986;48.190;16.366;2023-04-29T02:08:59;72.20;;;66.50;;
33644;SDS011;19986;48.190;16.366;2023-04-29T02:11:25;73.18;;;67.55;;
33644;SDS011;19986;48.190;16.366;2023-04-29T02:13:52;74.45;;;68.75;;
33644;SDS011;19986;48.190;16.366;2023-04-29T02:16:19;73.70;;;68.07;;
33644;SDS011;19986;48.190;16.366;2023-04-29T02:18:46;73.05;;;67.18;;
33644;SDS011;19986;48.190;16.366;2023-04-29T02:21:12;69.97;;;64.18;;
33644;SDS011;19986;48.190;16.366;2023-04-29T02:23:43;76.82;;;70.75;;
33644;SDS011;19986;48.190;16.366;2023-04-29T02:26:10;74.80;;;69.00;;
33644;SDS011;19986;48.190;16.366;2023-04-29T02:28:36;75.25;;;69.38;;
33644;SDS011;19986;48.190;16.366;2023-04-29T02:31:03;77.30;;;71.20;;
33644;SDS011;19986;48.190;16.366;2023-04-29T02:33:29;72.80;;;67.15;;
33644;SDS011;19986;48.190;16.366;2023-04-29T02:35:56;71.55;;;65.97;;
33644;SDS011;19986;48.190;16.366;2023-04-29T02:38:23;71.68;;;66.10;;
33644;SDS011;19986;48.190;16.366;2023-04-29T02:40:50;74.15;;;68.35;;
33644;SDS011;19986;48.190;16.366;2023-04-29T02:43:16;73.05;;;67.25;;
33644;SDS011;19986;48.190;16.366;2023-04-29T02:45:42;73.82;;;67.80;;
33644;SDS011;19986;48.190;16.366;2023-04-29T02:48:08;70.32;;;64.82;;
33644;SDS011;19986;48.190;16.366;2023-04-29T02:50:42;70.65;;;65.18;;
33644;SDS011;19986;48.190;16.366;2023-04-29T02:53:08;68.38;;;63.03;;
33644;SDS011;19986;48.190;16.366;2023-04-29T02:55:35;69.75;;;64.43;;
33644;SDS011;19986;48.190;16.366;2023-04-29T02:58:01;71.22;;;65.43;;
33644;SDS011;19986;48.190;16.366;2023-04-29T03:00:29;71.90;;;66.18;;
33644;SDS011;19986;48.190;16.366;2023-04-29T03:02:54;67.97;;;62.80;;
33644;SDS011;19986;48.190;16.366;2023-04-29T03:05:21;68.60;;;63.50;;
33644;SDS011;19986;48.190;16.366;2023-04-29T03:07:47;68.50;;;63.40;;
33644;SDS011;19986;48.190;16.366;2023-04-29T03:10:13;68.18;;;63.00;;
33644;SDS011;19986;48.190;16.366;2023-04-29T03:12:39;66.50;;;61.55;;
33644;SDS011;19986;48.190;16.366;2023-04-29T03:15:06;65.75;;;60.75;;
33644;SDS011;19986;48.190;16.366;2023-04-29T03:17:33;68.57;;;63.47;;
33644;SDS011;19986;48.190;16.366;2023-04-29T03:19:59;68.57;;;63.50;;
33644;SDS011;19986;48.190;16.366;2023-04-29T03:22:25;68.20;;;62.83;;
33644;SDS011;19986;48.190;16.366;2023-04-29T03:24:52;66.32;;;61.38;;
33644;SDS011;19986;48.190;16.366;2023-04-29T03:27:18;76.15;;;69.95;;
33644;SDS011;19986;48.190;16.366;2023-04-29T03:29:44;74.20;;;67.93;;
33644;SDS011;19986;48.190;16.366;2023-04-29T03:32:10;77.10;;;70.63;;
33644;SDS011;19986;48.190;16.366;2023-04-29T03:34:36;79.68;;;73.15;;
33644;SDS011;19986;48.190;16.366;2023-04-29T03:37:02;78.05;;;71.35;;
33644;SDS011;19986;48.190;16.366;2023-04-29T03:39:28;83.47;;;76.28;;
33644;SDS011;19986;48.190;16.366;2023-04-29T03:41:59;80.80;;;73.80;;
33644;SDS011;19986;48.190;16.366;2023-04-29T03:44:25;83.63;;;76.68;;
33644;SDS011;19986;48.190;16.366;2023-04-29T03:46:53;85.32;;;78.30;;
33644;SDS011;19986;48.190;16.366;2023-04-29T03:49:19;84.68;;;77.38;;
33644;SDS011;19986;48.190;16.366;2023-04-29T03:51:45;84.85;;;77.35;;
33644;SDS011;19986;48.190;16.366;2023-04-29T03:54:11;84.15;;;77.07;;
33644;SDS011;19986;48.190;16.366;2023-04-29T03:56:37;82.68;;;75.55;;
33644;SDS011;19986;48.190;16.366;2023-04-29T03:59:03;85.95;;;78.50;;
33644;SDS011;19986;48.190;16.366;2023-04-29T04:01:29;87.00;;;79.30;;
33644;SDS011;19986;48.190;16.366;2023-04-29T04:03:55;87.95;;;80.00;;
33644;SDS011;19986;48.190;16.366;2023-04-29T04:06:21;84.72;;;77.70;;
33644;SDS011;19986;48.190;16.366;2023-04-29T04:08:47;84.55;;;77.13;;
33644;SDS011;19986;48.190;16.366;2023-04-29T04:11:13;84.18;;;76.60;;
33644;SDS011;19986;48.190;16.366;2023-04-29T04:13:42;85.35;;;78.00;;
33644;SDS011;19986;48.190;16.366;2023-04-29T04:16:09;84.35;;;77.05;;
33644;SDS011;19986;48.190;16.366;2023-04-29T04:18:38;84.70;;;77.22;;
33644;SDS011;19986;48.190;16.366;2023-04-29T04:21:05;83.72;;;76.57;;
33644;SDS011;19986;48.190;16.366;2023-04-29T04:23:34;83.82;;;76.43;;
33644;SDS011;19986;48.190;16.366;2023-04-29T04:26:00;84.10;;;77.03;;
33644;SDS011;19986;48.190;16.366;2023-04-29T04:28:26;86.07;;;78.63;;
33644;SDS011;19986;48.190;16.366;2023-04-29T04:30:52;81.22;;;74.45;;
33644;SDS011;19986;48.190;16.366;2023-04-29T04:33:18;76.75;;;70.57;;
33644;SDS011;19986;48.190;16.366;2023-04-29T04:35:44;72.60;;;66.70;;
33644;SDS011;19986;48.190;16.366;2023-04-29T04:38:10;71.25;;;65.53;;
33644;SDS011;19986;48.190;16.366;2023-04-29T04:40:39;75.03;;;69.13;;
33644;SDS011;19986;48.190;16.366;2023-04-29T04:43:06;76.70;;;70.32;;
33644;SDS011;19986;48.190;16.366;2023-04-29T04:45:32;74.82;;;68.72;;
33644;SDS011;19986;48.190;16.366;2023-04-29T04:47:58;73.22;;;67.30;;
33644;SDS011;19986;48.190;16.366;2023-04-29T04:50:26;71.82;;;66.13;;
33644;SDS011;19986;48.190;16.366;2023-04-29T04:52:53;68.78;;;63.28;;
33644;SDS011;19986;48.190;16.366;2023-04-29T04:55:22;67.78;;;62.70;;
33644;SDS011;19986;48.190;16.366;2023-04-29T04:57:48;69.20;;;63.60;;
33644;SDS011;19986;48.190;16.366;2023-04-29T05:00:15;69.20;;;63.80;;
33644;SDS011;19986;48.190;16.366;2023-04-29T05:02:41;69.18;;;64.07;;
33644;SDS011;19986;48.190;16.366;2023-04-29T05:05:07;67.97;;;62.85;;
33644;SDS011;19986;48.190;16.366;2023-04-29T05:07:33;68.95;;;63.65;;
33644;SDS011;19986;48.190;16.366;2023-04-29T05:10:01;64.85;;;60.05;;
33644;SDS011;19986;48.190;16.366;2023-04-29T05:12:28;63.67;;;58.90;;
33644;SDS011;19986;48.190;16.366;2023-04-29T05:14:59;63.28;;;58.88;;
33644;SDS011;19986;48.190;16.366;2023-04-29T05:17:25;62.08;;;57.60;;
33644;SDS011;19986;48.190;16.366;2023-04-29T05:19:51;66.05;;;61.15;;
33644;SDS011;19986;48.190;16.366;2023-04-29T05:22:17;65.47;;;60.75;;
33644;SDS011;19986;48.190;16.366;2023-04-29T05:24:43;65.90;;;61.17;;
33644;SDS011;19986;48.190;16.366;2023-04-29T05:27:09;65.13;;;60.17;;
33644;SDS011;19986;48.190;16.366;2023-04-29T05:29:35;61.95;;;57.55;;
33644;SDS011;19986;48.190;16.366;2023-04-29T05:32:01;60.33;;;55.97;;
33644;SDS011;19986;48.190;16.366;2023-04-29T05:34:27;57.78;;;53.70;;
33644;SDS011;19986;48.190;16.366;2023-04-29T05:36:53;59.72;;;55.60;;
33644;SDS011;19986;48.190;16.366;2023-04-29T05:39:19;56.53;;;52.72;;
33644;SDS011;19986;48.190;16.366;2023-04-29T05:41:45;55.03;;;51.30;;
33644;SDS011;19986;48.190;16.366;2023-04-29T05:44:11;52.47;;;49.28;;
33644;SDS011;19986;48.190;16.366;2023-04-29T05:46:36;58.33;;;54.28;;
33644;SDS011;19986;48.190;16.366;2023-04-29T05:49:02;62.05;;;57.65;;
33644;SDS011;19986;48.190;16.366;2023-04-29T05:51:28;61.08;;;56.58;;
33644;SDS011;19986;48.190;16.366;2023-04-29T05:53:54;64.88;;;60.03;;
33644;SDS011;19986;48.190;16.366;2023-04-29T05:56:20;63.47;;;58.90;;
33644;SDS011;19986;48.190;16.366;2023-04-29T05:58:46;64.97;;;60.22;;
33644;SDS011;19986;48.190;16.366;2023-04-29T06:01:12;65.97;;;61.00;;
33644;SDS011;19986;48.190;16.366;2023-04-29T06:03:38;61.90;;;57.33;;
33644;SDS011;19986;48.190;16.366;2023-04-29T06:06:04;63.65;;;59.13;;
33644;SDS011;19986;48.190;16.366;2023-04-29T06:08:30;60.88;;;56.67;;
33644;SDS011;19986;48.190;16.366;2023-04-29T06:10:55;59.70;;;55.40;;
33644;SDS011;19986;48.190;16.366;2023-04-29T06:13:21;62.47;;;57.97;;
33644;SDS011;19986;48.190;16.366;2023-04-29T06:15:47;64.00;;;59.35;;
33644;SDS011;19986;48.190;16.366;2023-04-29T06:18:13;65.53;;;60.75;;
33644;SDS011;19986;48.190;16.366;2023-04-29T06:20:39;64.43;;;59.72;;
33644;SDS011;19986;48.190;16.366;2023-04-29T06:23:05;62.85;;;58.40;;
33644;SDS011;19986;48.190;16.366;2023-04-29T06:25:31;60.85;;;56.75;;
33644;SDS011;19986;48.190;16.366;2023-04-29T06:27:57;56.60;;;52.92;;
33644;SDS011;19986;48.190;16.366;2023-04-29T06:30:23;58.42;;;54.63;;
33644;SDS011;19986;48.190;16.366;2023-04-29T06:32:48;57.15;;;53.50;;
33644;SDS011;19986;48.190;16.366;2023-04-29T06:35:14;56.75;;;53.15;;
33644;SDS011;19986;48.190;16.366;2023-04-29T06:37:40;55.97;;;52.53;;
33644;SDS011;19986;48.190;16.366;2023-04-29T06:40:06;54.85;;;51.25;;
33644;SDS011;19986;48.190;16.366;2023-04-29T06:42:32;50.05;;;46.95;;
33644;SDS011;19986;48.190;16.366;2023-04-29T06:44:58;54.63;;;51.13;;
33644;SDS011;19986;48.190;16.366;2023-04-29T06:47:24;54.22;;;50.85;;
33644;SDS011;19986;48.190;16.366;2023-04-29T06:49:50;56.83;;;53.13;;
33644;SDS011;19986;48.190;16.366;2023-04-29T06:52:17;57.00;;;53.28;;
33644;SDS011;19986;48.190;16.366;2023-04-29T06:54:43;54.95;;;51.25;;
33644;SDS011;19986;48.190;16.366;2023-04-29T06:57:09;56.78;;;53.08;;
33644;SDS011;19986;48.190;16.366;2023-04-29T06:59:35;56.92;;;53.15;;
33644;SDS011;19986;48.190;16.366;2023-04-29T07:02:01;55.08;;;51.38;;
33644;SDS011;19986;48.190;16.366;2023-04-29T07:04:27;54.60;;;51.15;;
33644;SDS011;19986;48.190;16.366;2023-04-29T07:06:53;52.03;;;48.72;;
33644;SDS011;19986;48.190;16.366;2023-04-29T07:09:20;54.05;;;50.60;;
33644;SDS011;19986;48.190;16.366;2023-04-29T07:11:47;52.85;;;49.33;;
33644;SDS011;19986;48.190;16.366;2023-04-29T07:14:13;53.50;;;50.03;;
33644;SDS011;19986;48.190;16.366;2023-04-29T07:16:40;48.88;;;45.90;;
33644;SDS011;19986;48.190;16.366;2023-04-29T07:19:06;49.90;;;46.72;;
33644;SDS011;19986;48.190;16.366;2023-04-29T07:21:31;50.17;;;47.17;;
33644;SDS011;19986;48.190;16.366;2023-04-29T07:23:57;51.60;;;48.30;;
33644;SDS011;19986;48.190;16.366;2023-04-29T07:26:26;48.45;;;45.60;;
33644;SDS011;19986;48.190;16.366;2023-04-29T07:28:52;51.50;;;48.40;;
33644;SDS011;19986;48.190;16.366;2023-04-29T07:31:18;49.60;;;46.67;;
33644;SDS011;19986;48.190;16.366;2023-04-29T07:33:45;48.90;;;45.95;;
33644;SDS011;19986;48.190;16.366;2023-04-29T07:36:11;49.42;;;46.53;;
33644;SDS011;19986;48.190;16.366;2023-04-29T07:38:37;49.25;;;46.38;;
33644;SDS011;19986;48.190;16.366;2023-04-29T07:41:04;50.05;;;47.10;;
33644;SDS011;19986;48.190;16.366;2023-04-29T07:43:30;49.10;;;46.10;;
33644;SDS011;19986;48.190;16.366;2023-04-29T07:45:56;48.25;;;45.55;;
33644;SDS011;19986;48.190;16.366;2023-04-29T07:48:22;48.63;;;45.92;;
33644;SDS011;19986;48.190;16.366;2023-04-29T07:50:47;46.05;;;43.53;;
33644;SDS011;19986;48.190;16.366;2023-04-29T07:53:13;44.95;;;42.13;;
33644;SDS011;19986;48.190;16.366;2023-04-29T07:55:40;44.20;;;41.72;;
33644;SDS011;19986;48.190;16.366;2023-04-29T07:58:06;45.45;;;42.95;;
33644;SDS011;19986;48.190;16.366;2023-04-29T08:00:32;44.88;;;42.28;;
33644;SDS011;19986;48.190;16.366;2023-04-29T08:02:58;44.35;;;41.95;;
33644;SDS011;19986;48.190;16.366;2023-04-29T08:05:24;43.70;;;41.30;;
33644;SDS011;19986;48.190;16.366;2023-04-29T08:07:50;43.00;;;40.60;;
33644;SDS011;19986;48.190;16.366;2023-04-29T08:10:16;40.55;;;38.42;;
33644;SDS011;19986;48.190;16.366;2023-04-29T08:12:46;44.13;;;41.83;;
33644;SDS011;19986;48.190;16.366;2023-04-29T08:15:12;41.58;;;39.28;;
33644;SDS011;19986;48.190;16.366;2023-04-29T08:17:38;42.25;;;39.75;;
33644;SDS011;19986;48.190;16.366;2023-04-29T08:20:04;42.25;;;39.97;;
33644;SDS011;19986;48.190;16.366;2023-04-29T08:22:32;41.75;;;39.63;;
33644;SDS011;19986;48.190;16.366;2023-04-29T08:24:58;40.70;;;38.60;;
33644;SDS011;19986;48.190;16.366;2023-04-29T08:27:24;41.20;;;39.10;;
33644;SDS011;19986;48.190;16.366;2023-04-29T08:29:50;42.35;;;39.72;;
33644;SDS011;19986;48.190;16.366;2023-04-29T08:32:16;38.95;;;36.80;;
33644;SDS011;19986;48.190;16.366;2023-04-29T08:34:42;40.03;;;37.58;;
33644;SDS011;19986;48.190;16.366;2023-04-29T08:37:09;40.28;;;38.17;;
33644;SDS011;19986;48.190;16.366;2023-04-29T08:39:35;41.25;;;38.85;;
33644;SDS011;19986;48.190;16.366;2023-04-29T08:42:08;42.20;;;39.75;;
33644;SDS011;19986;48.190;16.366;2023-04-29T08:44:34;41.13;;;38.80;;
33644;SDS011;19986;48.190;16.366;2023-04-29T08:47:01;40.85;;;38.75;;
33644;SDS011;19986;48.190;16.366;2023-04-29T08:49:28;40.35;;;38.20;;
33644;SDS011;19986;48.190;16.366;2023-04-29T08:51:54;38.38;;;36.40;;
33644;SDS011;19986;48.190;16.366;2023-04-29T08:54:20;41.72;;;39.63;;
33644;SDS011;19986;48.190;16.366;2023-04-29T08:56:45;40.00;;;37.80;;
33644;SDS011;19986;48.190;16.366;2023-04-29T08:59:14;41.78;;;39.47;;
33644;SDS011;19986;48.190;16.366;2023-04-29T09:01:42;40.20;;;38.10;;
33644;SDS011;19986;48.190;16.366;2023-04-29T09:04:27;39.75;;;37.65;;
33644;SDS011;19986;48.190;16.366;2023-04-29T09:07:13;41.83;;;39.50;;
33644;SDS011;19986;48.190;16.366;2023-04-29T09:09:40;40.45;;;38.45;;
33644;SDS011;19986;48.190;16.366;2023-04-29T09:12:07;40.72;;;38.42;;
33644;SDS011;19986;48.190;16.366;2023-04-29T09:14:33;41.28;;;39.08;;
33644;SDS011;19986;48.190;16.366;2023-04-29T09:17:00;41.97;;;39.75;;
33644;SDS011;19986;48.190;16.366;2023-04-29T09:21:59;42.33;;;39.95;;
33644;SDS011;19986;48.190;16.366;2023-04-29T09:24:26;40.30;;;37.95;;
33644;SDS011;19986;48.190;16.366;2023-04-29T09:26:53;43.80;;;41.20;;
33644;SDS011;19986;48.190;16.366;2023-04-29T09:29:19;43.05;;;40.75;;
33644;SDS011;19986;48.190;16.366;2023-04-29T09:31:46;40.58;;;38.35;;
33644;SDS011;19986;48.190;16.366;2023-04-29T09:34:13;41.30;;;38.90;;
33644;SDS011;19986;48.190;16.366;2023-04-29T09:39:15;39.13;;;37.13;;
33644;SDS011;19986;48.190;16.366;2023-04-29T09:44:17;35.70;;;34.10;;
33644;SDS011;19986;48.190;16.366;2023-04-29T09:47:05;34.70;;;33.13;;
33644;SDS011;19986;48.190;16.366;2023-04-29T09:52:06;34.70;;;33.13;;
33644;SDS011;19986;48.190;16.366;2023-04-29T09:54:35;32.55;;;31.05;;
33644;SDS011;19986;48.190;16.366;2023-04-29T09:57:02;32.33;;;30.92;;
33644;SDS011;19986;48.190;16.366;2023-04-29T09:59:30;32.67;;;31.00;;
33644;SDS011;19986;48.190;16.366;2023-04-29T10:01:59;32.53;;;30.92;;
33644;SDS011;19986;48.190;16.366;2023-04-29T10:04:25;33.30;;;31.50;;
33644;SDS011;19986;48.190;16.366;2023-04-29T10:06:53;32.63;;;30.98;;
33644;SDS011;19986;48.190;16.366;2023-04-29T10:09:20;33.83;;;32.13;;
33644;SDS011;19986;48.190;16.366;2023-04-29T10:11:48;34.78;;;33.08;;
33644;SDS011;19986;48.190;16.366;2023-04-29T10:14:17;35.65;;;33.85;;
33644;SDS011;19986;48.190;16.366;2023-04-29T10:16:45;38.42;;;36.28;;
33644;SDS011;19986;48.190;16.366;2023-04-29T10:19:11;35.40;;;33.70;;
33644;SDS011;19986;48.190;16.366;2023-04-29T10:21:41;35.45;;;33.55;;
33644;SDS011;19986;48.190;16.366;2023-04-29T10:24:07;34.30;;;32.40;;
33644;SDS011;19986;48.190;16.366;2023-04-29T10:26:38;36.10;;;34.10;;
33644;SDS011;19986;48.190;16.366;2023-04-29T10:29:06;35.75;;;33.85;;
33644;SDS011;19986;48.190;16.366;2023-04-29T10:31:34;34.55;;;32.75;;
33644;SDS011;19986;48.190;16.366;2023-04-29T10:34:02;35.60;;;33.83;;
33644;SDS011;19986;48.190;16.366;2023-04-29T10:36:28;42.15;;;39.65;;
33644;SDS011;19986;48.190;16.366;2023-04-29T10:38:57;42.35;;;39.63;;
33644;SDS011;19986;48.190;16.366;2023-04-29T10:41:25;43.25;;;40.72;;
33644;SDS011;19986;48.190;16.366;2023-04-29T10:43:54;41.08;;;38.67;;
33644;SDS011;19986;48.190;16.366;2023-04-29T10:46:24;40.90;;;38.60;;
33644;SDS011;19986;48.190;16.366;2023-04-29T10:49:00;40.30;;;38.05;;
33644;SDS011;19986;48.190;16.366;2023-04-29T10:51:32;41.45;;;39.25;;
33644;SDS011;19986;48.190;16.366;2023-04-29T10:56:40;38.28;;;36.28;;
33644;SDS011;19986;48.190;16.366;2023-04-29T10:59:15;39.00;;;36.90;;
33644;SDS011;19986;48.190;16.366;2023-04-29T11:01:53;41.33;;;39.13;;
33644;SDS011;19986;48.190;16.366;2023-04-29T11:04:20;39.67;;;37.53;;
33644;SDS011;19986;48.190;16.366;2023-04-29T11:06:53;38.75;;;36.63;;
33644;SDS011;19986;48.190;16.366;2023-04-29T11:14:13;48.10;;;45.25;;
33644;SDS011;19986;48.190;16.366;2023-04-29T11:16:47;44.67;;;41.97;;
33644;SDS011;19986;48.190;16.366;2023-04-29T11:19:15;42.95;;;40.45;;
33644;SDS011;19986;48.190;16.366;2023-04-29T11:21:43;43.65;;;41.25;;
33644;SDS011;19986;48.190;16.366;2023-04-29T11:24:10;41.00;;;38.60;;
33644;SDS011;19986;48.190;16.366;2023-04-29T11:26:37;40.80;;;38.65;;
33644;SDS011;19986;48.190;16.366;2023-04-29T11:29:06;41.95;;;39.55;;
33644;SDS011;19986;48.190;16.366;2023-04-29T11:31:34;42.33;;;39.58;;
33644;SDS011;19986;48.190;16.366;2023-04-29T11:34:02;40.97;;;38.53;;
33644;SDS011;19986;48.190;16.366;2023-04-29T11:36:32;42.92;;;40.45;;
33644;SDS011;19986;48.190;16.366;2023-04-29T11:38:59;40.05;;;37.90;;
33644;SDS011;19986;48.190;16.366;2023-04-29T11:41:26;41.28;;;39.08;;
33644;SDS011;19986;48.190;16.366;2023-04-29T11:43:55;41.75;;;39.25;;
33644;SDS011;19986;48.190;16.366;2023-04-29T11:46:22;42.53;;;40.10;;
33644;SDS011;19986;48.190;16.366;2023-04-29T11:48:49;39.95;;;37.63;;
33644;SDS011;19986;48.190;16.366;2023-04-29T11:51:15;40.58;;;38.05;;
33644;SDS011;19986;48.190;16.366;2023-04-29T11:53:43;42.28;;;39.67;;
33644;SDS011;19986;48.190;16.366;2023-04-29T11:56:09;44.67;;;41.83;;
33644;SDS011;19986;48.190;16.366;2023-04-29T11:58:35;43.95;;;41.20;;
33644;SDS011;19986;48.190;16.366;2023-04-29T12:01:02;45.63;;;42.72;;
33644;SDS011;19986;48.190;16.366;2023-04-29T12:03:29;44.97;;;42.30;;
33644;SDS011;19986;48.190;16.366;2023-04-29T12:05:56;48.63;;;45.42;;
33644;SDS011;19986;48.190;16.366;2023-04-29T12:08:23;47.65;;;44.85;;
33644;SDS011;19986;48.190;16.366;2023-04-29T12:10:50;45.28;;;42.22;;
33644;SDS011;19986;48.190;16.366;2023-04-29T12:13:18;43.15;;;40.40;;
33644;SDS011;19986;48.190;16.366;2023-04-29T12:15:45;43.67;;;41.08;;
33644;SDS011;19986;48.190;16.366;2023-04-29T12:18:13;45.72;;;43.03;;
33644;SDS011;19986;48.190;16.366;2023-04-29T12:20:39;45.38;;;42.78;;
33644;SDS011;19986;48.190;16.366;2023-04-29T12:23:11;44.80;;;42.10;;
33644;SDS011;19986;48.190;16.366;2023-04-29T12:25:38;43.38;;;40.85;;
33644;SDS011;19986;48.190;16.366;2023-04-29T12:28:13;44.20;;;41.65;;
33644;SDS011;19986;48.190;16.366;2023-04-29T12:30:39;43.35;;;40.75;;
33644;SDS011;19986;48.190;16.366;2023-04-29T12:33:08;45.17;;;42.47;;
33644;SDS011;19986;48.190;16.366;2023-04-29T12:35:34;45.88;;;43.17;;
33644;SDS011;19986;48.190;16.366;2023-04-29T12:38:01;46.03;;;43.33;;
33644;SDS011;19986;48.190;16.366;2023-04-29T12:40:27;44.83;;;42.22;;
33644;SDS011;19986;48.190;16.366;2023-04-29T12:42:53;43.53;;;41.03;;
33644;SDS011;19986;48.190;16.366;2023-04-29T12:45:30;45.10;;;42.40;;
33644;SDS011;19986;48.190;16.366;2023-04-29T12:47:57;43.20;;;40.70;;
33644;SDS011;19986;48.190;16.366;2023-04-29T12:50:30;41.58;;;39.05;;
33644;SDS011;19986;48.190;16.366;2023-04-29T12:53:05;43.47;;;40.25;;
33644;SDS011;19986;48.190;16.366;2023-04-29T12:55:33;46.50;;;43.53;;
33644;SDS011;19986;48.190;16.366;2023-04-29T12:58:00;44.72;;;42.20;;
33644;SDS011;19986;48.190;16.366;2023-04-29T13:00:27;46.67;;;43.67;;
33644;SDS011;19986;48.190;16.366;2023-04-29T13:02:53;46.22;;;43.42;;
33644;SDS011;19986;48.190;16.366;2023-04-29T13:05:19;47.15;;;44.25;;
33644;SDS011;19986;48.190;16.366;2023-04-29T13:07:46;44.38;;;41.83;;
33644;SDS011;19986;48.190;16.366;2023-04-29T13:10:13;46.13;;;43.33;;
33644;SDS011;19986;48.190;16.366;2023-04-29T13:12:39;44.88;;;42.20;;
33644;SDS011;19986;48.190;16.366;2023-04-29T13:15:05;44.63;;;41.92;;
33644;SDS011;19986;48.190;16.366;2023-04-29T13:17:34;43.50;;;40.95;;
33644;SDS011;19986;48.190;16.366;2023-04-29T13:20:02;43.75;;;41.35;;
33644;SDS011;19986;48.190;16.366;2023-04-29T13:22:28;44.78;;;42.20;;
33644;SDS011;19986;48.190;16.366;2023-04-29T13:24:55;43.17;;;40.47;;
33644;SDS011;19986;48.190;16.366;2023-04-29T13:27:21;42.40;;;39.90;;
33644;SDS011;19986;48.190;16.366;2023-04-29T13:29:47;44.58;;;42.00;;
33644;SDS011;19986;48.190;16.366;2023-04-29T13:32:13;37.83;;;35.65;;
33644;SDS011;19986;48.190;16.366;2023-04-29T13:34:40;38.78;;;36.63;;
33644;SDS011;19986;48.190;16.366;2023-04-29T13:37:10;39.20;;;37.20;;
33644;SDS011;19986;48.190;16.366;2023-04-29T13:39:36;39.10;;;37.10;;
33644;SDS011;19986;48.190;16.366;2023-04-29T13:42:02;38.08;;;36.17;;
33644;SDS011;19986;48.190;16.366;2023-04-29T13:44:28;38.70;;;36.60;;
33644;SDS011;19986;48.190;16.366;2023-04-29T13:46:55;39.53;;;37.53;;
33644;SDS011;19986;48.190;16.366;2023-04-29T13:49:20;37.83;;;35.83;;
33644;SDS011;19986;48.190;16.366;2023-04-29T13:51:47;37.78;;;35.85;;
33644;SDS011;19986;48.190;16.366;2023-04-29T13:54:13;39.40;;;37.53;;
33644;SDS011;19986;48.190;16.366;2023-04-29T13:56:39;39.80;;;37.70;;
33644;SDS011;19986;48.190;16.366;2023-04-29T13:59:04;37.10;;;35.30;;
33644;SDS011;19986;48.190;16.366;2023-04-29T14:01:30;39.22;;;37.20;;
33644;SDS011;19986;48.190;16.366;2023-04-29T14:03:56;39.28;;;37.28;;
33644;SDS011;19986;48.190;16.366;2023-04-29T14:06:22;39.13;;;37.13;;
33644;SDS011;19986;48.190;16.366;2023-04-29T14:08:48;39.03;;;36.83;;
33644;SDS011;19986;48.190;16.366;2023-04-29T14:11:14;38.25;;;36.25;;
33644;SDS011;19986;48.190;16.366;2023-04-29T14:13:40;38.58;;;36.72;;
33644;SDS011;19986;48.190;16.366;2023-04-29T14:16:06;39.08;;;36.95;;
33644;SDS011;19986;48.190;16.366;2023-04-29T14:18:33;37.03;;;35.13;;
33644;SDS011;19986;48.190;16.366;2023-04-29T14:20:59;36.53;;;34.63;;
33644;SDS011;19986;48.190;16.366;2023-04-29T14:23:25;45.83;;;42.67;;
33644;SDS011;19986;48.190;16.366;2023-04-29T14:25:51;39.40;;;37.13;;
33644;SDS011;19986;48.190;16.366;2023-04-29T14:28:17;41.20;;;38.90;;
33644;SDS011;19986;48.190;16.366;2023-04-29T14:30:43;40.60;;;38.40;;
33644;SDS011;19986;48.190;16.366;2023-04-29T14:33:08;39.10;;;37.10;;
33644;SDS011;19986;48.190;16.366;2023-04-29T14:35:34;39.83;;;37.63;;
33644;SDS011;19986;48.190;16.366;2023-04-29T14:38:00;37.55;;;35.47;;
33644;SDS011;19986;48.190;16.366;2023-04-29T14:40:26;38.90;;;36.90;;
33644;SDS011;19986;48.190;16.366;2023-04-29T14:42:52;39.10;;;37.05;;